sensor_id;sensor_type;location;lat;lon;timestamp;pressure;altitude;pressure_sealevel;temperature;humidity
11114;BME280;5610;52.154;9.198;2023-02-18T00:01:45;101142.16;;;8.70;100.00
11114;BME280;5610;52.154;9.198;2023-02-18T00:04:30;101135.06;;;8.71;100.00
11114;BME280;5610;52.154;9.198;2023-02-18T00:07:16;101138.50;;;8.73;100.00
11114;BME280;5610;52.154;9.198;2023-02-18T00:10:02;101129.53;;;8.75;100.00
11114;BME280;5610;52.154;9.198;2023-02-18T00:12:47;101131.19;;;8.78;100.00
11114;BME280;5610;52.154;9.198;2023-02-18T00:15:35;101131.84;;;8.83;100.00
11114;BME280;5610;52.154;9.198;2023-02-18T00:18:20;101131.06;;;8.81;100.00
11114;BME280;5610;52.154;9.198;2023-02-18T00:21:07;101139.81;;;8.83;100.00
11114;BME280;5610;52.154;9.198;2023-02-18T00:23:52;101133.06;;;8.76;100.00
11114;BME280;5610;52.154;9.198;2023-02-18T00:26:37;101139.81;;;8.83;100.00
11114;BME280;5610;52.154;9.198;2023-02-18T00:29:22;101128.41;;;8.81;100.00
11114;BME280;5610;52.154;9.198;2023-02-18T00:32:09;101122.00;;;8.85;100.00
11114;BME280;5610;52.154;9.198;2023-02-18T00:34:55;101133.84;;;8.78;100.00
11114;BME280;5610;52.154;9.198;2023-02-18T00:37:40;101129.59;;;8.93;100.00
11114;BME280;5610;52.154;9.198;2023-02-18T00:40:25;101118.28;;;8.89;100.00
11114;BME280;5610;52.154;9.198;2023-02-18T00:43:11;101118.84;;;8.96;100.00
11114;BME280;5610;52.154;9.198;2023-02-18T00:45:56;101131.03;;;9.00;100.00
11114;BME280;5610;52.154;9.198;2023-02-18T00:48:43;101139.44;;;8.91;100.00
11114;BME280;5610;52.154;9.198;2023-02-18T00:51:28;101137.13;;;9.02;100.00
11114;BME280;5610;52.154;9.198;2023-02-18T00:54:15;101134.84;;;8.94;100.00
11114;BME280;5610;52.154;9.198;2023-02-18T00:57:00;101131.59;;;8.88;100.00
11114;BME280;5610;52.154;9.198;2023-02-18T00:59:46;101136.22;;;9.03;100.00
11114;BME280;5610;52.154;9.198;2023-02-18T01:02:31;101138.81;;;9.04;100.00
11114;BME280;5610;52.154;9.198;2023-02-18T01:05:18;101139.38;;;9.11;100.00
11114;BME280;5610;52.154;9.198;2023-02-18T01:08:04;101126.28;;;9.06;100.00
11114;BME280;5610;52.154;9.198;2023-02-18T01:10:53;101135.91;;;9.09;100.00
11114;BME280;5610;52.154;9.198;2023-02-18T01:13:40;101118.81;;;9.15;100.00
11114;BME280;5610;52.154;9.198;2023-02-18T01:16:25;101128.88;;;9.27;100.00
11114;BME280;5610;52.154;9.198;2023-02-18T01:19:11;101127.63;;;9.34;100.00
11114;BME280;5610;52.154;9.198;2023-02-18T01:21:57;101128.34;;;9.38;100.00
11114;BME280;5610;52.154;9.198;2023-02-18T01:24:43;101128.94;;;9.25;100.00
11114;BME280;5610;52.154;9.198;2023-02-18T01:27:28;101124.59;;;9.42;100.00
11114;BME280;5610;52.154;9.198;2023-02-18T01:30:16;101125.06;;;9.50;100.00
11114;BME280;5610;52.154;9.198;2023-02-18T01:33:02;101119.63;;;9.53;100.00
11114;BME280;5610;52.154;9.198;2023-02-18T01:35:48;101119.66;;;9.51;100.00
11114;BME280;5610;52.154;9.198;2023-02-18T01:38:35;101123.13;;;9.53;100.00
11114;BME280;5610;52.154;9.198;2023-02-18T01:41:20;101123.78;;;9.58;100.00
11114;BME280;5610;52.154;9.198;2023-02-18T01:44:14;101104.34;;;9.56;100.00
11114;BME280;5610;52.154;9.198;2023-02-18T01:47:02;101106.53;;;9.48;100.00
11114;BME280;5610;52.154;9.198;2023-02-18T01:49:50;101104.13;;;9.61;100.00
11114;BME280;5610;52.154;9.198;2023-02-18T01:52:36;101106.88;;;9.59;100.00
11114;BME280;5610;52.154;9.198;2023-02-18T01:55:25;101101.78;;;9.72;100.00
11114;BME280;5610;52.154;9.198;2023-02-18T01:58:11;101094.72;;;9.71;100.00
11114;BME280;5610;52.154;9.198;2023-02-18T02:00:57;101092.88;;;9.73;100.00
11114;BME280;5610;52.154;9.198;2023-02-18T02:03:42;101093.16;;;9.84;100.00
11114;BME280;5610;52.154;9.198;2023-02-18T02:06:28;101084.19;;;9.87;100.00
11114;BME280;5610;52.154;9.198;2023-02-18T02:09:15;101077.69;;;9.75;100.00
11114;BME280;5610;52.154;9.198;2023-02-18T02:12:24;101072.91;;;9.82;100.00
11114;BME280;5610;52.154;9.198;2023-02-18T02:15:23;101065.88;;;9.81;100.00
11114;BME280;5610;52.154;9.198;2023-02-18T02:18:33;101061.09;;;9.87;100.00
11114;BME280;5610;52.154;9.198;2023-02-18T02:24:51;101065.94;;;9.97;100.00
11114;BME280;5610;52.154;9.198;2023-02-18T02:28:02;101063.56;;;9.90;100.00
11114;BME280;5610;52.154;9.198;2023-02-18T02:31:14;101067.28;;;9.88;100.00
11114;BME280;5610;52.154;9.198;2023-02-18T02:34:31;101061.41;;;9.81;100.00
11114;BME280;5610;52.154;9.198;2023-02-18T02:37:27;101069.84;;;9.89;100.00
11114;BME280;5610;52.154;9.198;2023-02-18T02:40:22;101062.09;;;9.68;100.00
11114;BME280;5610;52.154;9.198;2023-02-18T02:43:14;101057.34;;;9.74;100.00
11114;BME280;5610;52.154;9.198;2023-02-18T02:46:03;101041.50;;;9.71;100.00
11114;BME280;5610;52.154;9.198;2023-02-18T02:48:57;101036.50;;;9.82;100.00
11114;BME280;5610;52.154;9.198;2023-02-18T02:51:50;101032.13;;;9.81;100.00
11114;BME280;5610;52.154;9.198;2023-02-18T02:54:38;101016.25;;;9.80;100.00
11114;BME280;5610;52.154;9.198;2023-02-18T02:57:42;101013.09;;;9.89;100.00
11114;BME280;5610;52.154;9.198;2023-02-18T03:00:40;101010.97;;;9.96;100.00
11114;BME280;5610;52.154;9.198;2023-02-18T03:03:52;101009.59;;;10.04;100.00
11114;BME280;5610;52.154;9.198;2023-02-18T03:10:28;101018.44;;;10.22;100.00
11114;BME280;5610;52.154;9.198;2023-02-18T03:13:25;101009.53;;;10.23;100.00
11114;BME280;5610;52.154;9.198;2023-02-18T03:16:22;101006.88;;;10.22;100.00
11114;BME280;5610;52.154;9.198;2023-02-18T03:19:15;101007.72;;;10.24;100.00
11114;BME280;5610;52.154;9.198;2023-02-18T03:22:07;101004.34;;;10.36;100.00
11114;BME280;5610;52.154;9.198;2023-02-18T03:24:56;100998.97;;;10.37;100.00
11114;BME280;5610;52.154;9.198;2023-02-18T03:27:45;100998.56;;;10.45;100.00
11114;BME280;5610;52.154;9.198;2023-02-18T03:30:37;100990.22;;;10.51;100.00
11114;BME280;5610;52.154;9.198;2023-02-18T03:33:27;100979.38;;;10.54;100.00
11114;BME280;5610;52.154;9.198;2023-02-18T03:36:16;100967.44;;;10.45;100.00
11114;BME280;5610;52.154;9.198;2023-02-18T03:39:06;100959.44;;;10.45;100.00
11114;BME280;5610;52.154;9.198;2023-02-18T03:41:54;100953.59;;;10.55;100.00
11114;BME280;5610;52.154;9.198;2023-02-18T03:44:40;100943.72;;;10.41;100.00
11114;BME280;5610;52.154;9.198;2023-02-18T03:47:26;100941.31;;;10.36;100.00
11114;BME280;5610;52.154;9.198;2023-02-18T03:50:11;100945.41;;;10.42;100.00
11114;BME280;5610;52.154;9.198;2023-02-18T03:52:57;100943.81;;;10.39;100.00
11114;BME280;5610;52.154;9.198;2023-02-18T03:55:43;100940.28;;;10.39;100.00
11114;BME280;5610;52.154;9.198;2023-02-18T03:58:29;100937.88;;;10.50;100.00
11114;BME280;5610;52.154;9.198;2023-02-18T04:01:14;100927.91;;;10.54;100.00
11114;BME280;5610;52.154;9.198;2023-02-18T04:04:00;100924.78;;;10.61;100.00
11114;BME280;5610;52.154;9.198;2023-02-18T04:06:46;100919.47;;;10.61;100.00
11114;BME280;5610;52.154;9.198;2023-02-18T04:09:31;100918.41;;;10.64;100.00
11114;BME280;5610;52.154;9.198;2023-02-18T04:12:18;100914.03;;;10.63;100.00
11114;BME280;5610;52.154;9.198;2023-02-18T04:15:03;100906.91;;;10.63;100.00
11114;BME280;5610;52.154;9.198;2023-02-18T04:17:49;100897.69;;;10.69;100.00
11114;BME280;5610;52.154;9.198;2023-02-18T04:20:34;100896.59;;;10.73;100.00
11114;BME280;5610;52.154;9.198;2023-02-18T04:23:20;100908.72;;;10.63;100.00
11114;BME280;5610;52.154;9.198;2023-02-18T04:26:05;100901.66;;;10.62;100.00
11114;BME280;5610;52.154;9.198;2023-02-18T04:28:52;100890.41;;;10.72;100.00
11114;BME280;5610;52.154;9.198;2023-02-18T04:31:37;100893.81;;;10.75;100.00
11114;BME280;5610;52.154;9.198;2023-02-18T04:34:22;100901.06;;;10.72;100.00
11114;BME280;5610;52.154;9.198;2023-02-18T04:37:08;100896.53;;;10.59;100.00
11114;BME280;5610;52.154;9.198;2023-02-18T04:39:53;100886.19;;;10.68;100.00
11114;BME280;5610;52.154;9.198;2023-02-18T04:42:39;100901.41;;;10.66;100.00
11114;BME280;5610;52.154;9.198;2023-02-18T04:45:26;100886.47;;;10.48;100.00
11114;BME280;5610;52.154;9.198;2023-02-18T04:48:12;100888.03;;;10.52;100.00
11114;BME280;5610;52.154;9.198;2023-02-18T04:50:57;100880.28;;;10.48;100.00
11114;BME280;5610;52.154;9.198;2023-02-18T04:53:42;100882.69;;;10.52;100.00
11114;BME280;5610;52.154;9.198;2023-02-18T04:56:28;100878.22;;;10.53;100.00
11114;BME280;5610;52.154;9.198;2023-02-18T04:59:14;100872.28;;;10.48;100.00
11114;BME280;5610;52.154;9.198;2023-02-18T05:02:01;100869.38;;;10.52;100.00
11114;BME280;5610;52.154;9.198;2023-02-18T05:04:46;100871.00;;;10.55;100.00
11114;BME280;5610;52.154;9.198;2023-02-18T05:07:32;100865.59;;;10.40;100.00
11114;BME280;5610;52.154;9.198;2023-02-18T05:10:18;100854.19;;;10.38;100.00
11114;BME280;5610;52.154;9.198;2023-02-18T05:13:03;100853.84;;;10.44;100.00
11114;BME280;5610;52.154;9.198;2023-02-18T05:15:49;100842.47;;;10.41;100.00
11114;BME280;5610;52.154;9.198;2023-02-18T05:18:36;100837.34;;;10.38;100.00
11114;BME280;5610;52.154;9.198;2023-02-18T05:21:21;100839.22;;;10.36;100.00
11114;BME280;5610;52.154;9.198;2023-02-18T05:24:06;100829.44;;;10.36;100.00
11114;BME280;5610;52.154;9.198;2023-02-18T05:26:52;100822.38;;;10.35;100.00
11114;BME280;5610;52.154;9.198;2023-02-18T05:29:38;100814.31;;;10.37;100.00
11114;BME280;5610;52.154;9.198;2023-02-18T05:32:23;100818.59;;;10.39;100.00
11114;BME280;5610;52.154;9.198;2023-02-18T05:35:10;100805.09;;;10.42;100.00
11114;BME280;5610;52.154;9.198;2023-02-18T05:37:56;100806.91;;;10.42;100.00
11114;BME280;5610;52.154;9.198;2023-02-18T05:40:42;100794.44;;;10.42;100.00
11114;BME280;5610;52.154;9.198;2023-02-18T05:43:27;100783.03;;;10.40;100.00
11114;BME280;5610;52.154;9.198;2023-02-18T05:46:12;100793.69;;;10.40;100.00
11114;BME280;5610;52.154;9.198;2023-02-18T05:48:58;100778.34;;;10.30;100.00
11114;BME280;5610;52.154;9.198;2023-02-18T05:51:44;100771.88;;;10.34;100.00
11114;BME280;5610;52.154;9.198;2023-02-18T05:54:30;100767.50;;;10.33;100.00
11114;BME280;5610;52.154;9.198;2023-02-18T05:57:15;100764.81;;;10.33;100.00
11114;BME280;5610;52.154;9.198;2023-02-18T06:00:00;100772.06;;;10.15;100.00
11114;BME280;5610;52.154;9.198;2023-02-18T06:02:48;100760.91;;;10.24;100.00
11114;BME280;5610;52.154;9.198;2023-02-18T06:05:34;100751.63;;;10.15;100.00
11114;BME280;5610;52.154;9.198;2023-02-18T06:08:20;100745.88;;;10.23;100.00
11114;BME280;5610;52.154;9.198;2023-02-18T06:11:06;100743.03;;;10.26;100.00
11114;BME280;5610;52.154;9.198;2023-02-18T06:13:51;100736.28;;;10.35;100.00
11114;BME280;5610;52.154;9.198;2023-02-18T06:16:36;100738.91;;;10.51;100.00
11114;BME280;5610;52.154;9.198;2023-02-18T06:19:22;100731.41;;;10.57;100.00
11114;BME280;5610;52.154;9.198;2023-02-18T06:22:07;100722.75;;;10.68;100.00
11114;BME280;5610;52.154;9.198;2023-02-18T06:24:54;100722.03;;;10.80;100.00
11114;BME280;5610;52.154;9.198;2023-02-18T06:27:39;100708.03;;;10.91;100.00
11114;BME280;5610;52.154;9.198;2023-02-18T06:30:25;100713.34;;;10.91;100.00
11114;BME280;5610;52.154;9.198;2023-02-18T06:33:10;100701.94;;;11.03;100.00
11114;BME280;5610;52.154;9.198;2023-02-18T06:35:57;100704.88;;;11.13;100.00
11114;BME280;5610;52.154;9.198;2023-02-18T06:38:44;100708.59;;;11.10;100.00
11114;BME280;5610;52.154;9.198;2023-02-18T06:41:31;100705.66;;;11.15;100.00
11114;BME280;5610;52.154;9.198;2023-02-18T06:44:16;100704.41;;;11.06;100.00
11114;BME280;5610;52.154;9.198;2023-02-18T06:47:01;100692.31;;;11.15;100.00
11114;BME280;5610;52.154;9.198;2023-02-18T06:49:47;100689.94;;;11.10;100.00
11114;BME280;5610;52.154;9.198;2023-02-18T06:52:32;100683.63;;;11.11;100.00
11114;BME280;5610;52.154;9.198;2023-02-18T06:55:17;100688.13;;;10.96;100.00
11114;BME280;5610;52.154;9.198;2023-02-18T06:58:04;100671.47;;;11.07;100.00
11114;BME280;5610;52.154;9.198;2023-02-18T07:00:50;100674.03;;;11.09;100.00
11114;BME280;5610;52.154;9.198;2023-02-18T07:03:35;100660.69;;;11.09;100.00
11114;BME280;5610;52.154;9.198;2023-02-18T07:06:21;100663.94;;;11.14;100.00
11114;BME280;5610;52.154;9.198;2023-02-18T07:09:06;100671.06;;;11.13;100.00
11114;BME280;5610;52.154;9.198;2023-02-18T07:11:51;100667.44;;;11.28;100.00
11114;BME280;5610;52.154;9.198;2023-02-18T07:14:38;100648.47;;;11.19;100.00
11114;BME280;5610;52.154;9.198;2023-02-18T07:17:23;100643.81;;;11.22;100.00
11114;BME280;5610;52.154;9.198;2023-02-18T07:20:09;100637.69;;;11.35;100.00
11114;BME280;5610;52.154;9.198;2023-02-18T07:22:54;100628.16;;;11.31;100.00
11114;BME280;5610;52.154;9.198;2023-02-18T07:25:39;100628.53;;;11.39;100.00
11114;BME280;5610;52.154;9.198;2023-02-18T07:28:25;100625.97;;;11.37;100.00
11114;BME280;5610;52.154;9.198;2023-02-18T07:31:11;100618.72;;;11.39;100.00
11114;BME280;5610;52.154;9.198;2023-02-18T07:33:57;100620.41;;;11.40;100.00
11114;BME280;5610;52.154;9.198;2023-02-18T07:36:42;100619.56;;;11.40;100.00
11114;BME280;5610;52.154;9.198;2023-02-18T07:39:28;100617.69;;;11.42;100.00
11114;BME280;5610;52.154;9.198;2023-02-18T07:42:14;100615.69;;;11.31;100.00
11114;BME280;5610;52.154;9.198;2023-02-18T07:44:59;100610.25;;;11.33;100.00
11114;BME280;5610;52.154;9.198;2023-02-18T07:47:46;100614.53;;;11.35;100.00
11114;BME280;5610;52.154;9.198;2023-02-18T07:50:31;100626.47;;;11.30;100.00
11114;BME280;5610;52.154;9.198;2023-02-18T07:53:20;100611.03;;;11.35;100.00
11114;BME280;5610;52.154;9.198;2023-02-18T07:56:06;100618.63;;;11.26;100.00
11114;BME280;5610;52.154;9.198;2023-02-18T07:58:51;100612.16;;;11.31;100.00
11114;BME280;5610;52.154;9.198;2023-02-18T08:01:36;100596.91;;;11.33;100.00
11114;BME280;5610;52.154;9.198;2023-02-18T08:04:23;100615.78;;;11.30;100.00
11114;BME280;5610;52.154;9.198;2023-02-18T08:07:11;100610.97;;;11.22;100.00
11114;BME280;5610;52.154;9.198;2023-02-18T08:09:57;100615.03;;;11.27;100.00
11114;BME280;5610;52.154;9.198;2023-02-18T08:12:42;100616.94;;;11.25;100.00
11114;BME280;5610;52.154;9.198;2023-02-18T08:15:28;100602.81;;;11.38;100.00
11114;BME280;5610;52.154;9.198;2023-02-18T08:18:15;100602.34;;;11.31;100.00
11114;BME280;5610;52.154;9.198;2023-02-18T08:21:03;100624.91;;;11.40;100.00
11114;BME280;5610;52.154;9.198;2023-02-18T08:23:48;100598.22;;;11.40;100.00
11114;BME280;5610;52.154;9.198;2023-02-18T08:26:34;100603.88;;;11.35;100.00
11114;BME280;5610;52.154;9.198;2023-02-18T08:29:19;100601.84;;;11.39;100.00
11114;BME280;5610;52.154;9.198;2023-02-18T08:32:04;100601.56;;;11.43;100.00
11114;BME280;5610;52.154;9.198;2023-02-18T08:34:50;100601.66;;;11.42;100.00
11114;BME280;5610;52.154;9.198;2023-02-18T08:37:37;100608.50;;;11.46;100.00
11114;BME280;5610;52.154;9.198;2023-02-18T08:40:22;100594.25;;;11.33;100.00
11114;BME280;5610;52.154;9.198;2023-02-18T08:43:08;100601.09;;;11.37;100.00
11114;BME280;5610;52.154;9.198;2023-02-18T08:45:56;100585.84;;;11.39;100.00
11114;BME280;5610;52.154;9.198;2023-02-18T08:48:41;100599.00;;;11.42;100.00
11114;BME280;5610;52.154;9.198;2023-02-18T08:51:26;100611.44;;;11.41;100.00
11114;BME280;5610;52.154;9.198;2023-02-18T08:54:13;100577.44;;;11.45;100.00
11114;BME280;5610;52.154;9.198;2023-02-18T08:56:58;100583.28;;;11.37;100.00
11114;BME280;5610;52.154;9.198;2023-02-18T08:59:44;100593.00;;;11.38;100.00
11114;BME280;5610;52.154;9.198;2023-02-18T09:02:29;100594.81;;;11.38;100.00
11114;BME280;5610;52.154;9.198;2023-02-18T09:05:15;100588.97;;;11.45;100.00
11114;BME280;5610;52.154;9.198;2023-02-18T09:08:01;100583.84;;;11.42;100.00
11114;BME280;5610;52.154;9.198;2023-02-18T09:10:48;100584.78;;;11.41;100.00
11114;BME280;5610;52.154;9.198;2023-02-18T09:13:33;100596.22;;;11.43;100.00
11114;BME280;5610;52.154;9.198;2023-02-18T09:16:18;100576.78;;;11.41;100.00
11114;BME280;5610;52.154;9.198;2023-02-18T09:19:04;100558.66;;;11.46;100.00
11114;BME280;5610;52.154;9.198;2023-02-18T09:21:49;100556.53;;;11.51;100.00
11114;BME280;5610;52.154;9.198;2023-02-18T09:24:36;100562.00;;;11.50;100.00
11114;BME280;5610;52.154;9.198;2023-02-18T09:27:23;100559.84;;;11.42;100.00
11114;BME280;5610;52.154;9.198;2023-02-18T09:30:09;100560.44;;;11.73;100.00
11114;BME280;5610;52.154;9.198;2023-02-18T09:32:54;100564.78;;;11.61;100.00
11114;BME280;5610;52.154;9.198;2023-02-18T09:35:40;100571.41;;;11.68;100.00
11114;BME280;5610;52.154;9.198;2023-02-18T09:38:26;100576.13;;;11.65;100.00
11114;BME280;5610;52.154;9.198;2023-02-18T09:41:15;100573.63;;;11.62;100.00
11114;BME280;5610;52.154;9.198;2023-02-18T09:44:11;100565.22;;;11.68;100.00
11114;BME280;5610;52.154;9.198;2023-02-18T09:46:59;100564.91;;;11.72;100.00
11114;BME280;5610;52.154;9.198;2023-02-18T09:49:48;100547.72;;;11.76;100.00
11114;BME280;5610;52.154;9.198;2023-02-18T09:52:36;100559.31;;;11.90;100.00
11114;BME280;5610;52.154;9.198;2023-02-18T09:55:26;100557.53;;;11.76;100.00
11114;BME280;5610;52.154;9.198;2023-02-18T09:58:14;100542.75;;;11.97;100.00
11114;BME280;5610;52.154;9.198;2023-02-18T10:01:05;100540.31;;;12.07;100.00
11114;BME280;5610;52.154;9.198;2023-02-18T10:03:51;100539.03;;;12.00;100.00
11114;BME280;5610;52.154;9.198;2023-02-18T10:06:36;100523.75;;;12.02;100.00
11114;BME280;5610;52.154;9.198;2023-02-18T10:09:24;100531.44;;;11.94;100.00
11114;BME280;5610;52.154;9.198;2023-02-18T10:12:13;100542.75;;;11.97;100.00
11114;BME280;5610;52.154;9.198;2023-02-18T10:15:00;100536.69;;;12.08;100.00
11114;BME280;5610;52.154;9.198;2023-02-18T10:17:48;100521.63;;;11.94;100.00
11114;BME280;5610;52.154;9.198;2023-02-18T10:20:35;100534.81;;;11.70;100.00
11114;BME280;5610;52.154;9.198;2023-02-18T10:23:20;100554.50;;;11.82;100.00
11114;BME280;5610;52.154;9.198;2023-02-18T10:26:12;100542.16;;;11.67;100.00
11114;BME280;5610;52.154;9.198;2023-02-18T10:28:58;100546.41;;;11.57;100.00
11114;BME280;5610;52.154;9.198;2023-02-18T10:31:49;100538.97;;;11.74;100.00
11114;BME280;5610;52.154;9.198;2023-02-18T10:34:40;100534.28;;;11.78;100.00
11114;BME280;5610;52.154;9.198;2023-02-18T10:37:41;100532.84;;;11.87;100.00
11114;BME280;5610;52.154;9.198;2023-02-18T10:40:31;100535.31;;;11.63;100.00
11114;BME280;5610;52.154;9.198;2023-02-18T10:43:25;100551.13;;;11.66;100.00
11114;BME280;5610;52.154;9.198;2023-02-18T10:46:21;100553.31;;;11.46;100.00
11114;BME280;5610;52.154;9.198;2023-02-18T10:49:24;100531.13;;;11.46;100.00
11114;BME280;5610;52.154;9.198;2023-02-18T10:52:15;100537.88;;;11.51;100.00
11114;BME280;5610;52.154;9.198;2023-02-18T10:55:02;100529.41;;;11.45;100.00
11114;BME280;5610;52.154;9.198;2023-02-18T10:57:49;100533.06;;;11.69;100.00
11114;BME280;5610;52.154;9.198;2023-02-18T11:00:38;100507.31;;;11.55;100.00
11114;BME280;5610;52.154;9.198;2023-02-18T11:03:25;100517.81;;;11.59;100.00
11114;BME280;5610;52.154;9.198;2023-02-18T11:06:16;100511.13;;;11.78;100.00
11114;BME280;5610;52.154;9.198;2023-02-18T11:09:05;100535.75;;;11.57;100.00
11114;BME280;5610;52.154;9.198;2023-02-18T11:11:58;100554.06;;;11.48;100.00
11114;BME280;5610;52.154;9.198;2023-02-18T11:14:47;100560.81;;;11.27;100.00
11114;BME280;5610;52.154;9.198;2023-02-18T11:17:34;100547.34;;;11.43;100.00
11114;BME280;5610;52.154;9.198;2023-02-18T11:20:24;100539.06;;;11.33;100.00
11114;BME280;5610;52.154;9.198;2023-02-18T11:23:16;100556.66;;;11.63;100.00
11114;BME280;5610;52.154;9.198;2023-02-18T11:26:05;100540.56;;;11.64;100.00
11114;BME280;5610;52.154;9.198;2023-02-18T11:28:59;100546.19;;;11.60;100.00
11114;BME280;5610;52.154;9.198;2023-02-18T11:31:46;100556.47;;;11.66;100.00
11114;BME280;5610;52.154;9.198;2023-02-18T11:34:34;100556.78;;;11.61;100.00
11114;BME280;5610;52.154;9.198;2023-02-18T11:37:20;100548.97;;;11.58;100.00
11114;BME280;5610;52.154;9.198;2023-02-18T11:40:06;100556.59;;;11.64;100.00
11114;BME280;5610;52.154;9.198;2023-02-18T11:43:10;100560.28;;;11.49;100.00
11114;BME280;5610;52.154;9.198;2023-02-18T11:46:08;100555.25;;;11.44;100.00
11114;BME280;5610;52.154;9.198;2023-02-18T11:48:54;100548.09;;;11.45;100.00
11114;BME280;5610;52.154;9.198;2023-02-18T11:51:40;100548.13;;;11.58;100.00
11114;BME280;5610;52.154;9.198;2023-02-18T11:54:28;100556.13;;;11.58;100.00
11114;BME280;5610;52.154;9.198;2023-02-18T11:57:14;100557.63;;;11.49;100.00
11114;BME280;5610;52.154;9.198;2023-02-18T12:00:05;100552.47;;;11.19;100.00
11114;BME280;5610;52.154;9.198;2023-02-18T12:03:01;100536.88;;;11.13;100.00
11114;BME280;5610;52.154;9.198;2023-02-18T12:05:47;100561.41;;;10.91;100.00
11114;BME280;5610;52.154;9.198;2023-02-18T12:08:37;100536.91;;;10.98;100.00
11114;BME280;5610;52.154;9.198;2023-02-18T12:11:30;100550.16;;;11.00;100.00
11114;BME280;5610;52.154;9.198;2023-02-18T12:14:18;100537.00;;;10.97;100.00
11114;BME280;5610;52.154;9.198;2023-02-18T12:17:16;100545.78;;;10.85;100.00
11114;BME280;5610;52.154;9.198;2023-02-18T12:20:15;100545.56;;;10.61;100.00
11114;BME280;5610;52.154;9.198;2023-02-18T12:23:08;100552.88;;;10.71;100.00
11114;BME280;5610;52.154;9.198;2023-02-18T12:26:03;100562.28;;;10.77;100.00
11114;BME280;5610;52.154;9.198;2023-02-18T12:29:02;100548.78;;;10.66;100.00
11114;BME280;5610;52.154;9.198;2023-02-18T12:32:17;100542.75;;;10.77;100.00
11114;BME280;5610;52.154;9.198;2023-02-18T12:35:18;100554.22;;;10.79;100.00
11114;BME280;5610;52.154;9.198;2023-02-18T12:38:35;100548.22;;;10.75;100.00
11114;BME280;5610;52.154;9.198;2023-02-18T12:41:39;100554.28;;;10.77;100.00
11114;BME280;5610;52.154;9.198;2023-02-18T12:44:37;100569.25;;;10.65;100.00
11114;BME280;5610;52.154;9.198;2023-02-18T12:47:45;100570.00;;;10.67;100.00
11114;BME280;5610;52.154;9.198;2023-02-18T12:51:02;100560.84;;;10.86;100.00
11114;BME280;5610;52.154;9.198;2023-02-18T12:54:10;100564.75;;;10.94;100.00
11114;BME280;5610;52.154;9.198;2023-02-18T12:57:17;100562.63;;;10.99;100.00
11114;BME280;5610;52.154;9.198;2023-02-18T13:00:27;100568.63;;;11.03;100.00
11114;BME280;5610;52.154;9.198;2023-02-18T13:03:48;100558.72;;;10.91;100.00
11114;BME280;5610;52.154;9.198;2023-02-18T13:06:51;100584.16;;;10.96;100.00
11114;BME280;5610;52.154;9.198;2023-02-18T13:09:57;100568.81;;;11.00;100.00
11114;BME280;5610;52.154;9.198;2023-02-18T13:12:53;100567.38;;;11.09;100.00
11114;BME280;5610;52.154;9.198;2023-02-18T13:15:42;100571.84;;;11.08;100.00
11114;BME280;5610;52.154;9.198;2023-02-18T13:18:35;100570.59;;;11.14;100.00
11114;BME280;5610;52.154;9.198;2023-02-18T13:21:23;100575.19;;;10.97;100.00
11114;BME280;5610;52.154;9.198;2023-02-18T13:24:10;100571.94;;;11.07;100.00
11114;BME280;5610;52.154;9.198;2023-02-18T13:27:03;100572.81;;;11.07;100.00
11114;BME280;5610;52.154;9.198;2023-02-18T13:29:57;100576.31;;;11.08;100.00
11114;BME280;5610;52.154;9.198;2023-02-18T13:32:52;100574.19;;;11.13;100.00
11114;BME280;5610;52.154;9.198;2023-02-18T13:35:43;100572.78;;;11.21;100.00
11114;BME280;5610;52.154;9.198;2023-02-18T13:38:48;100574.47;;;11.22;100.00
11114;BME280;5610;52.154;9.198;2023-02-18T13:41:37;100575.47;;;11.34;100.00
11114;BME280;5610;52.154;9.198;2023-02-18T13:44:39;100574.06;;;11.28;100.00
11114;BME280;5610;52.154;9.198;2023-02-18T13:47:38;100559.97;;;11.26;100.00
11114;BME280;5610;52.154;9.198;2023-02-18T13:50:27;100570.56;;;11.28;100.00
11114;BME280;5610;52.154;9.198;2023-02-18T13:53:23;100573.47;;;11.38;100.00
11114;BME280;5610;52.154;9.198;2023-02-18T13:56:19;100568.75;;;11.28;100.00
11114;BME280;5610;52.154;9.198;2023-02-18T13:59:09;100566.81;;;11.31;100.00
11114;BME280;5610;52.154;9.198;2023-02-18T14:02:07;100579.13;;;11.46;100.00
11114;BME280;5610;52.154;9.198;2023-02-18T14:04:54;100570.22;;;11.33;100.00
11114;BME280;5610;52.154;9.198;2023-02-18T14:07:46;100560.88;;;11.40;100.00
11114;BME280;5610;52.154;9.198;2023-02-18T14:10:33;100576.25;;;11.36;100.00
11114;BME280;5610;52.154;9.198;2023-02-18T14:13:37;100590.59;;;11.21;100.00
11114;BME280;5610;52.154;9.198;2023-02-18T14:16:22;100567.88;;;11.28;100.00
11114;BME280;5610;52.154;9.198;2023-02-18T14:19:26;100585.31;;;11.19;100.00
11114;BME280;5610;52.154;9.198;2023-02-18T14:22:25;100600.00;;;11.12;100.00
11114;BME280;5610;52.154;9.198;2023-02-18T14:25:32;100581.81;;;11.19;100.00
11114;BME280;5610;52.154;9.198;2023-02-18T14:28:41;100604.44;;;11.26;100.00
11114;BME280;5610;52.154;9.198;2023-02-18T14:31:33;100589.91;;;11.17;100.00
11114;BME280;5610;52.154;9.198;2023-02-18T14:34:31;100594.28;;;11.18;100.00
11114;BME280;5610;52.154;9.198;2023-02-18T14:41:09;100608.25;;;10.95;100.00
11114;BME280;5610;52.154;9.198;2023-02-18T14:44:11;100605.38;;;10.98;100.00
11114;BME280;5610;52.154;9.198;2023-02-18T14:47:22;100610.69;;;10.98;100.00
11114;BME280;5610;52.154;9.198;2023-02-18T14:50:11;100610.91;;;10.95;100.00
11114;BME280;5610;52.154;9.198;2023-02-18T14:52:58;100607.19;;;10.97;100.00
11114;BME280;5610;52.154;9.198;2023-02-18T14:55:47;100630.69;;;11.05;100.00
11114;BME280;5610;52.154;9.198;2023-02-18T14:58:35;100635.63;;;11.11;100.00
11114;BME280;5610;52.154;9.198;2023-02-18T15:01:24;100622.78;;;11.04;100.00